Concordia, Kansas
Current Conditions -  °F | °C
As of 6:55 PM on Monday 20 Oct 2014 (Local Time) from KCNK Reporting Station
Clear Clear  
Wind Chill: 65°   Ceiling: Unl
Heat Index: 65°   Visibility: 10mi
Dew Point: 45°   Wind: 0mph
Humidity: 48%   Direction: NA
Pressure: 30.05"   Gusts: NA
Location:  39.57°N, 97.66°W
Report Text: KCNK 202355Z AUTO 00000KT 10SM CLR 18/07 A3005 RMK AO2 SLP173 T01830072 10250 20183 56001
Loading
Personal Weather Stations






























Interactive Weather Map New forecast layout! Learn more

10-Day Weather Forecast

Advertisements
Track Severe Weather on mobile